sensor_id;sensor_type;location;lat;lon;timestamp;P1;durP1;ratioP1;P2;durP2;ratioP2
10823;SDS011;39116;59.332;18.034;2023-09-19T00:01:51;8.90;;;5.75;;
10823;SDS011;39116;59.332;18.034;2023-09-19T00:04:12;8.35;;;5.70;;
10823;SDS011;39116;59.332;18.034;2023-09-19T00:06:35;10.27;;;6.13;;
10823;SDS011;39116;59.332;18.034;2023-09-19T00:08:57;11.23;;;6.07;;
10823;SDS011;39116;59.332;18.034;2023-09-19T00:11:20;8.60;;;6.15;;
10823;SDS011;39116;59.332;18.034;2023-09-19T00:13:47;7.43;;;6.28;;
10823;SDS011;39116;59.332;18.034;2023-09-19T00:16:10;6.78;;;6.03;;
10823;SDS011;39116;59.332;18.034;2023-09-19T00:18:34;11.00;;;6.72;;
10823;SDS011;39116;59.332;18.034;2023-09-19T00:20:57;13.20;;;6.55;;
10823;SDS011;39116;59.332;18.034;2023-09-19T00:23:18;10.82;;;6.85;;
10823;SDS011;39116;59.332;18.034;2023-09-19T00:25:41;12.48;;;7.50;;
10823;SDS011;39116;59.332;18.034;2023-09-19T00:28:03;9.40;;;7.38;;
10823;SDS011;39116;59.332;18.034;2023-09-19T00:30:26;12.07;;;6.63;;
10823;SDS011;39116;59.332;18.034;2023-09-19T00:32:48;9.35;;;7.30;;
10823;SDS011;39116;59.332;18.034;2023-09-19T00:35:16;11.48;;;7.85;;
10823;SDS011;39116;59.332;18.034;2023-09-19T00:37:39;12.02;;;7.55;;
10823;SDS011;39116;59.332;18.034;2023-09-19T00:40:01;12.70;;;7.93;;
10823;SDS011;39116;59.332;18.034;2023-09-19T00:42:23;11.68;;;8.00;;
10823;SDS011;39116;59.332;18.034;2023-09-19T00:44:46;12.57;;;9.32;;
10823;SDS011;39116;59.332;18.034;2023-09-19T00:47:07;10.38;;;8.38;;
10823;SDS011;39116;59.332;18.034;2023-09-19T00:49:35;13.52;;;8.40;;
10823;SDS011;39116;59.332;18.034;2023-09-19T00:51:59;12.73;;;9.23;;
10823;SDS011;39116;59.332;18.034;2023-09-19T00:54:21;10.15;;;9.00;;
10823;SDS011;39116;59.332;18.034;2023-09-19T00:56:44;15.00;;;9.45;;
10823;SDS011;39116;59.332;18.034;2023-09-19T00:59:09;13.13;;;9.02;;
10823;SDS011;39116;59.332;18.034;2023-09-19T01:01:31;13.43;;;8.75;;
10823;SDS011;39116;59.332;18.034;2023-09-19T01:03:54;13.00;;;9.65;;
10823;SDS011;39116;59.332;18.034;2023-09-19T01:06:16;16.77;;;9.45;;
10823;SDS011;39116;59.332;18.034;2023-09-19T01:08:39;11.73;;;8.63;;
10823;SDS011;39116;59.332;18.034;2023-09-19T01:11:03;12.93;;;9.70;;
10823;SDS011;39116;59.332;18.034;2023-09-19T01:13:35;13.00;;;9.00;;
10823;SDS011;39116;59.332;18.034;2023-09-19T01:16:10;14.48;;;9.07;;
10823;SDS011;39116;59.332;18.034;2023-09-19T01:18:45;12.82;;;9.55;;
10823;SDS011;39116;59.332;18.034;2023-09-19T01:21:15;16.30;;;9.90;;
10823;SDS011;39116;59.332;18.034;2023-09-19T01:23:52;13.02;;;8.82;;
10823;SDS011;39116;59.332;18.034;2023-09-19T01:26:36;11.48;;;9.40;;
10823;SDS011;39116;59.332;18.034;2023-09-19T01:29:17;14.50;;;9.60;;
10823;SDS011;39116;59.332;18.034;2023-09-19T01:31:54;12.13;;;9.70;;
10823;SDS011;39116;59.332;18.034;2023-09-19T01:34:19;16.13;;;9.98;;
10823;SDS011;39116;59.332;18.034;2023-09-19T01:36:41;12.30;;;9.43;;
10823;SDS011;39116;59.332;18.034;2023-09-19T01:39:06;14.20;;;9.40;;
10823;SDS011;39116;59.332;18.034;2023-09-19T01:41:33;11.98;;;9.60;;
10823;SDS011;39116;59.332;18.034;2023-09-19T01:44:17;11.93;;;8.93;;
10823;SDS011;39116;59.332;18.034;2023-09-19T01:46:45;12.45;;;9.65;;
10823;SDS011;39116;59.332;18.034;2023-09-19T01:49:15;12.13;;;9.73;;
10823;SDS011;39116;59.332;18.034;2023-09-19T01:51:48;13.75;;;9.13;;
10823;SDS011;39116;59.332;18.034;2023-09-19T01:54:16;13.38;;;9.95;;
10823;SDS011;39116;59.332;18.034;2023-09-19T01:56:48;15.18;;;9.43;;
10823;SDS011;39116;59.332;18.034;2023-09-19T01:59:16;15.00;;;9.48;;
10823;SDS011;39116;59.332;18.034;2023-09-19T02:01:47;12.98;;;9.85;;
10823;SDS011;39116;59.332;18.034;2023-09-19T02:04:11;17.48;;;9.60;;
10823;SDS011;39116;59.332;18.034;2023-09-19T02:06:34;15.23;;;10.00;;
10823;SDS011;39116;59.332;18.034;2023-09-19T02:08:56;13.23;;;9.38;;
10823;SDS011;39116;59.332;18.034;2023-09-19T02:11:19;14.48;;;10.50;;
10823;SDS011;39116;59.332;18.034;2023-09-19T02:13:41;16.35;;;10.38;;
10823;SDS011;39116;59.332;18.034;2023-09-19T02:16:03;11.93;;;10.57;;
10823;SDS011;39116;59.332;18.034;2023-09-19T02:18:26;12.52;;;10.88;;
10823;SDS011;39116;59.332;18.034;2023-09-19T02:20:50;14.50;;;11.07;;
10823;SDS011;39116;59.332;18.034;2023-09-19T02:23:13;13.55;;;10.88;;
10823;SDS011;39116;59.332;18.034;2023-09-19T02:25:35;18.05;;;11.90;;
10823;SDS011;39116;59.332;18.034;2023-09-19T02:27:58;17.58;;;11.95;;
10823;SDS011;39116;59.332;18.034;2023-09-19T02:30:21;15.38;;;11.18;;
10823;SDS011;39116;59.332;18.034;2023-09-19T02:32:45;17.30;;;12.07;;
10823;SDS011;39116;59.332;18.034;2023-09-19T02:35:09;18.88;;;12.38;;
10823;SDS011;39116;59.332;18.034;2023-09-19T02:37:34;14.25;;;11.70;;
10823;SDS011;39116;59.332;18.034;2023-09-19T02:39:56;16.17;;;11.90;;
10823;SDS011;39116;59.332;18.034;2023-09-19T02:42:17;15.40;;;12.52;;
10823;SDS011;39116;59.332;18.034;2023-09-19T02:44:39;16.90;;;12.70;;
10823;SDS011;39116;59.332;18.034;2023-09-19T02:47:01;17.88;;;12.13;;
10823;SDS011;39116;59.332;18.034;2023-09-19T02:49:24;15.95;;;12.75;;
10823;SDS011;39116;59.332;18.034;2023-09-19T02:51:46;16.08;;;13.45;;
10823;SDS011;39116;59.332;18.034;2023-09-19T02:54:10;19.90;;;13.25;;
10823;SDS011;39116;59.332;18.034;2023-09-19T02:56:32;16.48;;;13.55;;
10823;SDS011;39116;59.332;18.034;2023-09-19T02:58:56;19.33;;;13.57;;
10823;SDS011;39116;59.332;18.034;2023-09-19T03:01:18;17.50;;;14.30;;
10823;SDS011;39116;59.332;18.034;2023-09-19T03:03:40;18.48;;;13.95;;
10823;SDS011;39116;59.332;18.034;2023-09-19T03:06:02;20.25;;;13.88;;
10823;SDS011;39116;59.332;18.034;2023-09-19T03:08:24;17.95;;;14.10;;
10823;SDS011;39116;59.332;18.034;2023-09-19T03:10:48;18.15;;;13.35;;
10823;SDS011;39116;59.332;18.034;2023-09-19T03:13:10;21.33;;;14.60;;
10823;SDS011;39116;59.332;18.034;2023-09-19T03:15:32;21.20;;;15.40;;
10823;SDS011;39116;59.332;18.034;2023-09-19T03:17:54;22.35;;;15.20;;
10823;SDS011;39116;59.332;18.034;2023-09-19T03:20:18;19.73;;;14.30;;
10823;SDS011;39116;59.332;18.034;2023-09-19T03:22:41;22.90;;;15.63;;
10823;SDS011;39116;59.332;18.034;2023-09-19T03:25:03;18.33;;;15.15;;
10823;SDS011;39116;59.332;18.034;2023-09-19T03:27:29;21.05;;;15.35;;
10823;SDS011;39116;59.332;18.034;2023-09-19T03:29:51;19.90;;;16.15;;
10823;SDS011;39116;59.332;18.034;2023-09-19T03:32:13;26.10;;;16.42;;
10823;SDS011;39116;59.332;18.034;2023-09-19T03:34:35;22.58;;;15.93;;
10823;SDS011;39116;59.332;18.034;2023-09-19T03:36:58;22.27;;;17.08;;
10823;SDS011;39116;59.332;18.034;2023-09-19T03:39:20;21.58;;;16.80;;
10823;SDS011;39116;59.332;18.034;2023-09-19T03:41:42;22.75;;;16.67;;
10823;SDS011;39116;59.332;18.034;2023-09-19T03:44:06;22.90;;;16.75;;
10823;SDS011;39116;59.332;18.034;2023-09-19T03:46:28;21.98;;;17.70;;
10823;SDS011;39116;59.332;18.034;2023-09-19T03:48:52;24.25;;;17.33;;
10823;SDS011;39116;59.332;18.034;2023-09-19T03:51:14;25.25;;;17.10;;
10823;SDS011;39116;59.332;18.034;2023-09-19T03:53:36;24.80;;;18.10;;
10823;SDS011;39116;59.332;18.034;2023-09-19T03:55:58;22.05;;;17.65;;
10823;SDS011;39116;59.332;18.034;2023-09-19T03:58:21;28.52;;;18.73;;
10823;SDS011;39116;59.332;18.034;2023-09-19T04:00:44;20.65;;;18.17;;
10823;SDS011;39116;59.332;18.034;2023-09-19T04:03:07;22.52;;;18.35;;
10823;SDS011;39116;59.332;18.034;2023-09-19T04:05:30;24.75;;;18.15;;
10823;SDS011;39116;59.332;18.034;2023-09-19T04:07:52;25.17;;;18.42;;
10823;SDS011;39116;59.332;18.034;2023-09-19T04:10:14;21.55;;;17.63;;
10823;SDS011;39116;59.332;18.034;2023-09-19T04:12:37;21.85;;;17.75;;
10823;SDS011;39116;59.332;18.034;2023-09-19T04:14:59;24.17;;;17.00;;
10823;SDS011;39116;59.332;18.034;2023-09-19T04:17:22;24.23;;;17.45;;
10823;SDS011;39116;59.332;18.034;2023-09-19T04:19:44;25.35;;;18.63;;
10823;SDS011;39116;59.332;18.034;2023-09-19T04:22:06;24.92;;;17.33;;
10823;SDS011;39116;59.332;18.034;2023-09-19T04:24:29;22.92;;;17.90;;
10823;SDS011;39116;59.332;18.034;2023-09-19T04:26:51;27.33;;;18.13;;
10823;SDS011;39116;59.332;18.034;2023-09-19T04:29:13;30.17;;;18.48;;
10823;SDS011;39116;59.332;18.034;2023-09-19T04:31:35;26.17;;;18.33;;
10823;SDS011;39116;59.332;18.034;2023-09-19T04:34:01;22.52;;;17.95;;
10823;SDS011;39116;59.332;18.034;2023-09-19T04:36:23;26.48;;;18.50;;
10823;SDS011;39116;59.332;18.034;2023-09-19T04:38:45;24.30;;;19.15;;
10823;SDS011;39116;59.332;18.034;2023-09-19T04:41:07;31.90;;;19.15;;
10823;SDS011;39116;59.332;18.034;2023-09-19T04:43:29;26.90;;;18.73;;
10823;SDS011;39116;59.332;18.034;2023-09-19T04:45:51;20.73;;;18.00;;
10823;SDS011;39116;59.332;18.034;2023-09-19T04:48:15;27.65;;;19.13;;
10823;SDS011;39116;59.332;18.034;2023-09-19T04:50:39;23.25;;;18.08;;
10823;SDS011;39116;59.332;18.034;2023-09-19T04:53:01;29.13;;;20.13;;
10823;SDS011;39116;59.332;18.034;2023-09-19T04:55:23;29.38;;;19.80;;
10823;SDS011;39116;59.332;18.034;2023-09-19T04:57:45;24.25;;;19.65;;
10823;SDS011;39116;59.332;18.034;2023-09-19T05:00:07;30.00;;;20.23;;
10823;SDS011;39116;59.332;18.034;2023-09-19T05:02:32;28.42;;;20.45;;
10823;SDS011;39116;59.332;18.034;2023-09-19T05:04:55;29.30;;;20.77;;
10823;SDS011;39116;59.332;18.034;2023-09-19T05:07:20;26.17;;;19.30;;
10823;SDS011;39116;59.332;18.034;2023-09-19T05:09:46;24.38;;;19.90;;
10823;SDS011;39116;59.332;18.034;2023-09-19T05:12:08;23.88;;;19.50;;
10823;SDS011;39116;59.332;18.034;2023-09-19T05:14:30;27.17;;;20.63;;
10823;SDS011;39116;59.332;18.034;2023-09-19T05:16:52;24.40;;;19.38;;
10823;SDS011;39116;59.332;18.034;2023-09-19T05:19:14;24.98;;;19.63;;
10823;SDS011;39116;59.332;18.034;2023-09-19T05:21:37;25.77;;;20.27;;
10823;SDS011;39116;59.332;18.034;2023-09-19T05:24:00;23.58;;;18.70;;
10823;SDS011;39116;59.332;18.034;2023-09-19T05:26:22;24.85;;;19.35;;
10823;SDS011;39116;59.332;18.034;2023-09-19T05:28:45;25.10;;;18.85;;
10823;SDS011;39116;59.332;18.034;2023-09-19T05:31:08;22.17;;;19.20;;
10823;SDS011;39116;59.332;18.034;2023-09-19T05:33:30;22.00;;;19.50;;
10823;SDS011;39116;59.332;18.034;2023-09-19T05:35:53;23.23;;;18.83;;
10823;SDS011;39116;59.332;18.034;2023-09-19T05:38:16;22.17;;;18.77;;
10823;SDS011;39116;59.332;18.034;2023-09-19T05:40:40;24.95;;;20.50;;
10823;SDS011;39116;59.332;18.034;2023-09-19T05:43:03;25.83;;;18.63;;
10823;SDS011;39116;59.332;18.034;2023-09-19T05:45:26;25.88;;;19.67;;
10823;SDS011;39116;59.332;18.034;2023-09-19T05:47:47;22.40;;;18.90;;
10823;SDS011;39116;59.332;18.034;2023-09-19T05:50:10;22.83;;;19.85;;
10823;SDS011;39116;59.332;18.034;2023-09-19T05:52:32;27.42;;;20.45;;
10823;SDS011;39116;59.332;18.034;2023-09-19T05:54:54;24.17;;;18.85;;
10823;SDS011;39116;59.332;18.034;2023-09-19T05:57:18;24.80;;;19.35;;
10823;SDS011;39116;59.332;18.034;2023-09-19T05:59:40;23.02;;;18.77;;
10823;SDS011;39116;59.332;18.034;2023-09-19T06:02:02;28.25;;;20.88;;
10823;SDS011;39116;59.332;18.034;2023-09-19T06:04:26;24.13;;;20.17;;
10823;SDS011;39116;59.332;18.034;2023-09-19T06:06:48;23.45;;;19.08;;
10823;SDS011;39116;59.332;18.034;2023-09-19T06:09:09;28.33;;;20.77;;
10823;SDS011;39116;59.332;18.034;2023-09-19T06:11:31;23.17;;;19.13;;
10823;SDS011;39116;59.332;18.034;2023-09-19T06:13:56;23.65;;;19.10;;
10823;SDS011;39116;59.332;18.034;2023-09-19T06:16:17;25.13;;;19.80;;
10823;SDS011;39116;59.332;18.034;2023-09-19T06:18:40;24.48;;;18.65;;
10823;SDS011;39116;59.332;18.034;2023-09-19T06:21:02;20.52;;;18.33;;
10823;SDS011;39116;59.332;18.034;2023-09-19T06:23:27;21.10;;;18.65;;
10823;SDS011;39116;59.332;18.034;2023-09-19T06:25:49;22.98;;;18.40;;
10823;SDS011;39116;59.332;18.034;2023-09-19T06:28:11;22.48;;;18.90;;
10823;SDS011;39116;59.332;18.034;2023-09-19T06:30:35;22.50;;;19.10;;
10823;SDS011;39116;59.332;18.034;2023-09-19T06:33:00;23.00;;;18.77;;
10823;SDS011;39116;59.332;18.034;2023-09-19T06:35:24;24.60;;;20.13;;
10823;SDS011;39116;59.332;18.034;2023-09-19T06:37:47;25.80;;;18.70;;
10823;SDS011;39116;59.332;18.034;2023-09-19T06:40:10;24.75;;;19.27;;
10823;SDS011;39116;59.332;18.034;2023-09-19T06:42:34;23.17;;;19.55;;
10823;SDS011;39116;59.332;18.034;2023-09-19T06:44:57;22.90;;;19.75;;
10823;SDS011;39116;59.332;18.034;2023-09-19T06:47:20;25.10;;;19.73;;
10823;SDS011;39116;59.332;18.034;2023-09-19T06:49:42;24.00;;;20.73;;
10823;SDS011;39116;59.332;18.034;2023-09-19T06:52:05;25.63;;;19.63;;
10823;SDS011;39116;59.332;18.034;2023-09-19T06:54:27;23.45;;;19.73;;
10823;SDS011;39116;59.332;18.034;2023-09-19T06:56:51;21.15;;;18.48;;
10823;SDS011;39116;59.332;18.034;2023-09-19T06:59:15;24.40;;;19.52;;
10823;SDS011;39116;59.332;18.034;2023-09-19T07:01:37;24.83;;;19.20;;
10823;SDS011;39116;59.332;18.034;2023-09-19T07:04:01;21.20;;;18.88;;
10823;SDS011;39116;59.332;18.034;2023-09-19T07:06:23;23.05;;;19.38;;
10823;SDS011;39116;59.332;18.034;2023-09-19T07:08:45;21.65;;;19.13;;
10823;SDS011;39116;59.332;18.034;2023-09-19T07:11:07;23.27;;;18.77;;
10823;SDS011;39116;59.332;18.034;2023-09-19T07:13:29;21.90;;;18.42;;
10823;SDS011;39116;59.332;18.034;2023-09-19T07:15:51;20.85;;;17.77;;
10823;SDS011;39116;59.332;18.034;2023-09-19T07:18:13;18.35;;;16.55;;
10823;SDS011;39116;59.332;18.034;2023-09-19T07:20:38;17.80;;;16.05;;
10823;SDS011;39116;59.332;18.034;2023-09-19T07:23:00;16.98;;;15.18;;
10823;SDS011;39116;59.332;18.034;2023-09-19T07:25:22;16.70;;;14.93;;
10823;SDS011;39116;59.332;18.034;2023-09-19T07:27:44;16.33;;;14.70;;
10823;SDS011;39116;59.332;18.034;2023-09-19T07:30:06;15.95;;;14.25;;
10823;SDS011;39116;59.332;18.034;2023-09-19T07:32:29;15.15;;;13.63;;
10823;SDS011;39116;59.332;18.034;2023-09-19T07:34:51;16.77;;;14.85;;
10823;SDS011;39116;59.332;18.034;2023-09-19T07:37:16;16.90;;;15.10;;
10823;SDS011;39116;59.332;18.034;2023-09-19T07:39:38;17.58;;;15.70;;
10823;SDS011;39116;59.332;18.034;2023-09-19T07:42:02;18.77;;;16.40;;
10823;SDS011;39116;59.332;18.034;2023-09-19T07:44:24;18.90;;;16.90;;
10823;SDS011;39116;59.332;18.034;2023-09-19T07:46:46;18.08;;;15.93;;
10823;SDS011;39116;59.332;18.034;2023-09-19T07:49:11;17.83;;;15.93;;
10823;SDS011;39116;59.332;18.034;2023-09-19T07:51:33;18.88;;;16.85;;
10823;SDS011;39116;59.332;18.034;2023-09-19T07:53:56;19.00;;;16.05;;
10823;SDS011;39116;59.332;18.034;2023-09-19T07:56:18;20.85;;;17.60;;
10823;SDS011;39116;59.332;18.034;2023-09-19T07:58:41;20.83;;;17.13;;
10823;SDS011;39116;59.332;18.034;2023-09-19T08:01:03;19.15;;;16.80;;
10823;SDS011;39116;59.332;18.034;2023-09-19T08:03:26;19.52;;;17.42;;
10823;SDS011;39116;59.332;18.034;2023-09-19T08:05:48;19.45;;;17.45;;
10823;SDS011;39116;59.332;18.034;2023-09-19T08:08:10;22.52;;;17.73;;
10823;SDS011;39116;59.332;18.034;2023-09-19T08:10:36;20.13;;;17.92;;
10823;SDS011;39116;59.332;18.034;2023-09-19T08:13:00;19.58;;;17.45;;
10823;SDS011;39116;59.332;18.034;2023-09-19T08:15:22;19.77;;;17.02;;
10823;SDS011;39116;59.332;18.034;2023-09-19T08:17:44;18.60;;;16.48;;
10823;SDS011;39116;59.332;18.034;2023-09-19T08:20:06;20.10;;;17.08;;
10823;SDS011;39116;59.332;18.034;2023-09-19T08:22:36;18.50;;;16.33;;
10823;SDS011;39116;59.332;18.034;2023-09-19T08:24:58;17.90;;;16.02;;
10823;SDS011;39116;59.332;18.034;2023-09-19T08:27:21;18.10;;;16.15;;
10823;SDS011;39116;59.332;18.034;2023-09-19T08:29:47;21.63;;;18.40;;
10823;SDS011;39116;59.332;18.034;2023-09-19T08:32:10;25.17;;;17.10;;
10823;SDS011;39116;59.332;18.034;2023-09-19T08:34:32;22.42;;;15.95;;
10823;SDS011;39116;59.332;18.034;2023-09-19T08:36:54;22.85;;;16.25;;
10823;SDS011;39116;59.332;18.034;2023-09-19T08:39:17;19.48;;;15.50;;
10823;SDS011;39116;59.332;18.034;2023-09-19T08:41:39;19.95;;;15.95;;
10823;SDS011;39116;59.332;18.034;2023-09-19T08:44:03;18.23;;;14.65;;
10823;SDS011;39116;59.332;18.034;2023-09-19T08:46:25;18.92;;;15.55;;
10823;SDS011;39116;59.332;18.034;2023-09-19T08:48:54;18.20;;;14.50;;
10823;SDS011;39116;59.332;18.034;2023-09-19T08:51:26;18.42;;;13.88;;
10823;SDS011;39116;59.332;18.034;2023-09-19T08:53:54;18.95;;;14.38;;
10823;SDS011;39116;59.332;18.034;2023-09-19T08:56:25;14.80;;;13.10;;
10823;SDS011;39116;59.332;18.034;2023-09-19T08:58:48;14.65;;;13.02;;
10823;SDS011;39116;59.332;18.034;2023-09-19T09:01:15;15.73;;;12.57;;
10823;SDS011;39116;59.332;18.034;2023-09-19T09:03:43;20.23;;;12.50;;
10823;SDS011;39116;59.332;18.034;2023-09-19T09:06:07;14.48;;;11.80;;
10823;SDS011;39116;59.332;18.034;2023-09-19T09:08:31;13.23;;;10.68;;
10823;SDS011;39116;59.332;18.034;2023-09-19T09:10:54;11.82;;;10.05;;
10823;SDS011;39116;59.332;18.034;2023-09-19T09:13:17;13.10;;;9.90;;
10823;SDS011;39116;59.332;18.034;2023-09-19T09:15:40;13.50;;;10.48;;
10823;SDS011;39116;59.332;18.034;2023-09-19T09:18:06;14.32;;;9.35;;
10823;SDS011;39116;59.332;18.034;2023-09-19T09:20:29;14.82;;;9.20;;
10823;SDS011;39116;59.332;18.034;2023-09-19T09:22:51;13.90;;;9.27;;
10823;SDS011;39116;59.332;18.034;2023-09-19T09:25:14;11.75;;;9.85;;
10823;SDS011;39116;59.332;18.034;2023-09-19T09:27:38;9.20;;;8.27;;
10823;SDS011;39116;59.332;18.034;2023-09-19T09:30:02;13.50;;;8.90;;
10823;SDS011;39116;59.332;18.034;2023-09-19T09:32:25;12.60;;;8.93;;
10823;SDS011;39116;59.332;18.034;2023-09-19T09:34:51;12.63;;;9.00;;
10823;SDS011;39116;59.332;18.034;2023-09-19T09:37:14;14.27;;;8.57;;
10823;SDS011;39116;59.332;18.034;2023-09-19T09:39:35;9.73;;;7.47;;
10823;SDS011;39116;59.332;18.034;2023-09-19T09:41:57;11.38;;;8.27;;
10823;SDS011;39116;59.332;18.034;2023-09-19T09:44:20;8.52;;;7.57;;
10823;SDS011;39116;59.332;18.034;2023-09-19T09:46:42;10.82;;;7.50;;
10823;SDS011;39116;59.332;18.034;2023-09-19T09:49:35;8.98;;;7.63;;
10823;SDS011;39116;59.332;18.034;2023-09-19T09:52:01;10.02;;;7.55;;
10823;SDS011;39116;59.332;18.034;2023-09-19T09:54:30;11.77;;;7.82;;
10823;SDS011;39116;59.332;18.034;2023-09-19T09:56:57;8.75;;;7.18;;
10823;SDS011;39116;59.332;18.034;2023-09-19T09:59:43;7.90;;;6.65;;
10823;SDS011;39116;59.332;18.034;2023-09-19T10:02:10;10.82;;;6.93;;
10823;SDS011;39116;59.332;18.034;2023-09-19T10:04:33;9.30;;;7.15;;
10823;SDS011;39116;59.332;18.034;2023-09-19T10:07:05;10.27;;;6.57;;
10823;SDS011;39116;59.332;18.034;2023-09-19T10:09:44;9.70;;;6.78;;
10823;SDS011;39116;59.332;18.034;2023-09-19T10:12:07;11.35;;;7.22;;
10823;SDS011;39116;59.332;18.034;2023-09-19T10:14:35;8.13;;;6.57;;
10823;SDS011;39116;59.332;18.034;2023-09-19T10:16:59;11.18;;;7.07;;
10823;SDS011;39116;59.332;18.034;2023-09-19T10:19:28;7.35;;;5.75;;
10823;SDS011;39116;59.332;18.034;2023-09-19T10:21:54;11.25;;;6.30;;
10823;SDS011;39116;59.332;18.034;2023-09-19T10:24:19;7.88;;;6.05;;
10823;SDS011;39116;59.332;18.034;2023-09-19T10:26:45;8.82;;;6.47;;
10823;SDS011;39116;59.332;18.034;2023-09-19T10:29:11;6.13;;;5.53;;
10823;SDS011;39116;59.332;18.034;2023-09-19T10:31:34;8.07;;;5.80;;
10823;SDS011;39116;59.332;18.034;2023-09-19T10:34:02;6.57;;;5.93;;
10823;SDS011;39116;59.332;18.034;2023-09-19T10:36:25;8.00;;;6.10;;
10823;SDS011;39116;59.332;18.034;2023-09-19T10:38:51;7.45;;;6.10;;
10823;SDS011;39116;59.332;18.034;2023-09-19T10:41:19;7.97;;;5.78;;
10823;SDS011;39116;59.332;18.034;2023-09-19T10:43:43;6.80;;;5.38;;
10823;SDS011;39116;59.332;18.034;2023-09-19T10:46:09;8.20;;;5.70;;
10823;SDS011;39116;59.332;18.034;2023-09-19T10:48:32;6.00;;;5.40;;
10823;SDS011;39116;59.332;18.034;2023-09-19T10:50:57;5.75;;;5.10;;
10823;SDS011;39116;59.332;18.034;2023-09-19T10:53:25;6.50;;;5.68;;
10823;SDS011;39116;59.332;18.034;2023-09-19T10:55:49;6.80;;;5.40;;
10823;SDS011;39116;59.332;18.034;2023-09-19T10:58:15;6.25;;;5.38;;
10823;SDS011;39116;59.332;18.034;2023-09-19T11:00:52;6.68;;;5.15;;
10823;SDS011;39116;59.332;18.034;2023-09-19T11:03:19;8.05;;;5.60;;
10823;SDS011;39116;59.332;18.034;2023-09-19T11:05:43;6.90;;;4.85;;
10823;SDS011;39116;59.332;18.034;2023-09-19T11:08:21;8.65;;;4.97;;
10823;SDS011;39116;59.332;18.034;2023-09-19T11:10:46;5.88;;;4.80;;
10823;SDS011;39116;59.332;18.034;2023-09-19T11:13:24;6.65;;;5.22;;
10823;SDS011;39116;59.332;18.034;2023-09-19T11:16:03;6.53;;;5.18;;
10823;SDS011;39116;59.332;18.034;2023-09-19T11:24:27;6.55;;;4.85;;
10823;SDS011;39116;59.332;18.034;2023-09-19T11:26:51;5.05;;;4.40;;
10823;SDS011;39116;59.332;18.034;2023-09-19T11:29:31;5.45;;;4.13;;
10823;SDS011;39116;59.332;18.034;2023-09-19T11:31:53;5.00;;;4.10;;
10823;SDS011;39116;59.332;18.034;2023-09-19T11:40:07;3.65;;;2.30;;
10823;SDS011;39116;59.332;18.034;2023-09-19T11:42:43;4.63;;;2.50;;
10823;SDS011;39116;59.332;18.034;2023-09-19T11:45:07;4.13;;;2.38;;
10823;SDS011;39116;59.332;18.034;2023-09-19T11:47:30;3.08;;;1.90;;
10823;SDS011;39116;59.332;18.034;2023-09-19T11:49:55;4.65;;;2.00;;
10823;SDS011;39116;59.332;18.034;2023-09-19T11:52:21;2.95;;;1.85;;
10823;SDS011;39116;59.332;18.034;2023-09-19T11:54:44;2.60;;;1.77;;
10823;SDS011;39116;59.332;18.034;2023-09-19T11:57:11;5.57;;;1.92;;
10823;SDS011;39116;59.332;18.034;2023-09-19T11:59:42;6.60;;;2.00;;
10823;SDS011;39116;59.332;18.034;2023-09-19T12:02:07;3.75;;;2.13;;
10823;SDS011;39116;59.332;18.034;2023-09-19T12:04:39;3.30;;;1.60;;
10823;SDS011;39116;59.332;18.034;2023-09-19T12:07:04;2.80;;;1.70;;
10823;SDS011;39116;59.332;18.034;2023-09-19T12:09:31;2.97;;;1.40;;
10823;SDS011;39116;59.332;18.034;2023-09-19T12:11:53;2.92;;;1.58;;
10823;SDS011;39116;59.332;18.034;2023-09-19T12:14:21;1.88;;;1.52;;
10823;SDS011;39116;59.332;18.034;2023-09-19T12:16:50;3.55;;;1.88;;
10823;SDS011;39116;59.332;18.034;2023-09-19T12:19:19;2.80;;;1.58;;
10823;SDS011;39116;59.332;18.034;2023-09-19T12:21:42;8.20;;;2.08;;
10823;SDS011;39116;59.332;18.034;2023-09-19T12:24:04;3.20;;;1.83;;
10823;SDS011;39116;59.332;18.034;2023-09-19T12:26:38;4.10;;;1.70;;
10823;SDS011;39116;59.332;18.034;2023-09-19T12:29:02;2.83;;;1.88;;
10823;SDS011;39116;59.332;18.034;2023-09-19T12:31:25;2.80;;;1.58;;
10823;SDS011;39116;59.332;18.034;2023-09-19T12:33:52;2.40;;;1.60;;
10823;SDS011;39116;59.332;18.034;2023-09-19T12:36:22;3.40;;;1.30;;
10823;SDS011;39116;59.332;18.034;2023-09-19T12:38:49;5.43;;;1.70;;
10823;SDS011;39116;59.332;18.034;2023-09-19T12:41:13;2.90;;;1.58;;
10823;SDS011;39116;59.332;18.034;2023-09-19T12:43:35;3.08;;;1.65;;
10823;SDS011;39116;59.332;18.034;2023-09-19T12:46:00;4.68;;;1.70;;
10823;SDS011;39116;59.332;18.034;2023-09-19T12:48:23;5.70;;;1.98;;
10823;SDS011;39116;59.332;18.034;2023-09-19T12:51:01;4.82;;;1.88;;
10823;SDS011;39116;59.332;18.034;2023-09-19T12:53:27;3.90;;;1.73;;
10823;SDS011;39116;59.332;18.034;2023-09-19T12:55:53;3.80;;;2.10;;
10823;SDS011;39116;59.332;18.034;2023-09-19T12:58:20;2.92;;;2.00;;
10823;SDS011;39116;59.332;18.034;2023-09-19T13:00:42;6.50;;;1.90;;
10823;SDS011;39116;59.332;18.034;2023-09-19T13:03:09;4.47;;;1.60;;
10823;SDS011;39116;59.332;18.034;2023-09-19T13:05:52;4.40;;;1.90;;
10823;SDS011;39116;59.332;18.034;2023-09-19T13:08:19;2.60;;;1.50;;
10823;SDS011;39116;59.332;18.034;2023-09-19T13:13:29;2.90;;;1.70;;
10823;SDS011;39116;59.332;18.034;2023-09-19T13:15:51;2.65;;;1.70;;
10823;SDS011;39116;59.332;18.034;2023-09-19T13:18:13;4.53;;;2.00;;
10823;SDS011;39116;59.332;18.034;2023-09-19T13:20:39;8.98;;;1.95;;
10823;SDS011;39116;59.332;18.034;2023-09-19T13:23:25;4.90;;;2.20;;
10823;SDS011;39116;59.332;18.034;2023-09-19T13:25:47;4.10;;;1.73;;
10823;SDS011;39116;59.332;18.034;2023-09-19T13:28:11;2.50;;;1.80;;
10823;SDS011;39116;59.332;18.034;2023-09-19T13:30:33;5.05;;;2.10;;
10823;SDS011;39116;59.332;18.034;2023-09-19T13:33:05;3.60;;;2.13;;
10823;SDS011;39116;59.332;18.034;2023-09-19T13:35:29;9.13;;;2.45;;
10823;SDS011;39116;59.332;18.034;2023-09-19T13:37:53;3.78;;;1.50;;
10823;SDS011;39116;59.332;18.034;2023-09-19T13:40:15;6.03;;;2.00;;
10823;SDS011;39116;59.332;18.034;2023-09-19T13:42:37;5.93;;;2.10;;
10823;SDS011;39116;59.332;18.034;2023-09-19T13:45:01;3.17;;;1.80;;
10823;SDS011;39116;59.332;18.034;2023-09-19T13:47:24;6.15;;;2.20;;
10823;SDS011;39116;59.332;18.034;2023-09-19T13:49:47;3.95;;;1.73;;
10823;SDS011;39116;59.332;18.034;2023-09-19T13:52:10;7.13;;;1.85;;
10823;SDS011;39116;59.332;18.034;2023-09-19T13:54:33;8.30;;;2.10;;
10823;SDS011;39116;59.332;18.034;2023-09-19T13:56:55;5.18;;;1.95;;
10823;SDS011;39116;59.332;18.034;2023-09-19T13:59:17;5.95;;;2.17;;
10823;SDS011;39116;59.332;18.034;2023-09-19T14:01:40;4.53;;;1.77;;
10823;SDS011;39116;59.332;18.034;2023-09-19T14:04:03;3.50;;;2.13;;
10823;SDS011;39116;59.332;18.034;2023-09-19T14:06:25;3.55;;;1.77;;
10823;SDS011;39116;59.332;18.034;2023-09-19T14:08:47;3.88;;;1.90;;
10823;SDS011;39116;59.332;18.034;2023-09-19T14:11:10;4.68;;;2.00;;
10823;SDS011;39116;59.332;18.034;2023-09-19T14:13:32;3.58;;;1.80;;
10823;SDS011;39116;59.332;18.034;2023-09-19T14:15:54;4.55;;;1.77;;
10823;SDS011;39116;59.332;18.034;2023-09-19T14:18:16;2.88;;;1.58;;